Time;durP1;ratioP1;P1;durP2;ratioP2;P2;SDS_P1;SDS_P2;PMS_P1;PMS_P2;Temp;Humidity;BMP_temperature;BMP_pressure;BME280_temperature;BME280_humidity;BME280_pressure;Samples;Min_cycle;Max_cycle;Signal;HPM_P1;HPM_P2
2021/01/01 00:01:08;;;;;;;161.93;107.88;;;7.90;65.00;;;;;;5055012;28;20017;-71
2021/01/01 00:03:33;;;;;;;160.27;106.50;;;7.80;65.30;;;;;;5054574;28;20048;-70
2021/01/01 00:05:59;;;;;;;158.10;106.75;;;7.80;65.70;;;;;;5054862;28;20025;-71
2021/01/01 00:08:25;;;;;;;157.55;105.25;;;7.70;66.20;;;;;;5054753;28;20442;-71
2021/01/01 00:10:52;;;;;;;156.98;106.75;;;7.70;66.30;;;;;;5054470;28;20348;-70
2021/01/01 00:13:18;;;;;;;156.70;106.82;;;8.00;66.30;;;;;;5054802;28;20039;-71
2021/01/01 00:15:44;;;;;;;180.30;121.57;;;8.10;65.60;;;;;;5054196;28;20560;-70
2021/01/01 00:18:10;;;;;;;176.45;119.05;;;8.10;65.30;;;;;;5053051;28;20040;-72
2021/01/01 00:20:35;;;;;;;163.13;110.75;;;8.10;65.30;;;;;;5054461;28;20032;-71
2021/01/01 00:23:08;;;;;;;161.20;109.10;;;8.10;65.20;;;;;;5054252;28;20462;-70
2021/01/01 00:25:34;;;;;;;165.45;111.65;;;8.00;65.10;;;;;;5054421;28;20048;-71
2021/01/01 00:27:59;;;;;;;156.00;106.07;;;7.90;65.70;;;;;;5054389;28;20462;-71
2021/01/01 00:30:25;;;;;;;160.40;107.53;;;8.00;65.70;;;;;;5054260;28;20382;-70
2021/01/01 00:32:51;;;;;;;151.38;103.28;;;8.00;65.40;;;;;;5054146;28;20064;-70
2021/01/01 00:35:17;;;;;;;153.13;104.95;;;8.00;65.40;;;;;;5054045;28;20028;-70
2021/01/01 00:37:43;;;;;;;152.30;107.43;;;8.00;65.00;;;;;;5053855;28;20076;-69
2021/01/01 00:40:09;;;;;;;156.60;106.80;;;8.00;65.40;;;;;;5053658;28;20052;-71
2021/01/01 00:42:38;;;;;;;152.93;106.28;;;8.00;65.60;;;;;;5053978;28;20102;-69
2021/01/01 00:45:07;;;;;;;152.27;106.75;;;8.20;65.90;;;;;;5053832;28;20053;-70
2021/01/01 00:47:33;;;;;;;159.60;108.57;;;8.30;65.40;;;;;;5053748;28;20025;-69
2021/01/01 00:49:59;;;;;;;149.90;105.57;;;8.40;65.20;;;;;;5053575;28;20043;-70
2021/01/01 00:52:25;;;;;;;154.57;108.43;;;8.50;65.20;;;;;;5053880;28;20043;-70
2021/01/01 00:54:50;;;;;;;156.27;106.80;;;8.60;64.90;;;;;;5053833;28;20025;-70
2021/01/01 00:57:16;;;;;;;155.20;107.28;;;8.70;64.90;;;;;;5053506;28;20032;-69
2021/01/01 00:59:42;;;;;;;158.50;107.30;;;8.60;64.50;;;;;;5053348;28;20033;-69
2021/01/01 01:02:07;;;;;;;154.77;107.38;;;8.70;65.30;;;;;;5053871;28;20029;-70
2021/01/01 01:04:33;;;;;;;154.10;107.53;;;8.70;64.60;;;;;;5052035;28;20119;-70
2021/01/01 01:06:59;;;;;;;159.10;106.20;;;8.70;64.50;;;;;;5053648;28;20071;-70
2021/01/01 01:11:54;;;;;;;144.10;101.05;;;8.60;65.10;;;;;;5051761;28;20052;-71
2021/01/01 01:14:20;;;;;;;143.57;99.07;;;8.60;64.80;;;;;;5052463;28;20037;-66
2021/01/01 01:16:45;;;;;;;136.82;97.03;;;8.60;65.00;;;;;;5052938;28;20017;-69
2021/01/01 01:19:12;;;;;;;137.38;94.10;;;8.50;64.70;;;;;;5052862;28;20440;-65
2021/01/01 01:21:37;;;;;;;136.15;95.20;;;8.40;64.90;;;;;;5053056;28;20043;-65
2021/01/01 01:24:03;;;;;;;136.43;96.05;;;8.50;65.20;;;;;;5052838;28;20431;-66
2021/01/01 01:26:29;;;;;;;134.10;94.53;;;8.50;65.30;;;;;;5052882;28;20108;-67
2021/01/01 01:28:54;;;;;;;130.55;92.85;;;8.40;65.20;;;;;;5052652;28;20059;-66
2021/01/01 01:31:20;;;;;;;139.82;95.25;;;8.40;65.20;;;;;;5052909;28;20029;-67
2021/01/01 01:33:46;;;;;;;130.05;85.97;;;8.40;65.00;;;;;;5053217;28;20055;-75
2021/01/01 01:36:13;;;;;;;127.00;85.25;;;8.40;65.10;;;;;;5052908;28;20029;-66
2021/01/01 01:38:38;;;;;;;126.03;85.55;;;8.40;65.30;;;;;;5052810;28;20094;-68
2021/01/01 01:41:04;;;;;;;123.93;83.93;;;8.40;65.30;;;;;;5052535;28;20025;-66
2021/01/01 01:43:30;;;;;;;121.75;84.15;;;8.50;65.40;;;;;;5052995;28;20029;-73
2021/01/01 01:45:56;;;;;;;128.98;85.32;;;8.50;65.30;;;;;;5053061;28;20021;-74
2021/01/01 01:48:32;;;;;;;120.78;82.40;;;8.50;65.30;;;;;;5053092;28;20470;-66
2021/01/01 01:50:59;;;;;;;127.45;84.07;;;8.50;65.10;;;;;;5052843;28;20386;-69
2021/01/01 01:53:26;;;;;;;121.40;81.53;;;8.50;65.10;;;;;;5050853;28;20434;-71
2021/01/01 01:55:53;;;;;;;121.88;81.47;;;8.40;65.00;;;;;;5052908;28;20466;-65
2021/01/01 01:58:21;;;;;;;115.03;77.45;;;8.30;65.50;;;;;;5052419;28;20041;-67
2021/01/01 02:00:58;;;;;;;111.75;76.20;;;8.30;65.30;;;;;;5052748;28;20025;-73
2021/01/01 02:03:28;;;;;;;112.28;78.22;;;8.30;66.00;;;;;;5052835;28;20029;-70
2021/01/01 02:05:54;;;;;;;113.47;77.95;;;8.20;65.60;;;;;;5052724;28;20036;-68
2021/01/01 02:08:20;;;;;;;118.53;76.88;;;8.20;66.00;;;;;;5052476;28;20057;-66
2021/01/01 02:10:47;;;;;;;106.43;72.95;;;8.10;65.70;;;;;;5052295;28;20431;-71
2021/01/01 02:13:13;;;;;;;102.15;70.85;;;8.00;66.00;;;;;;5052429;28;20040;-69
2021/01/01 02:15:39;;;;;;;99.22;67.50;;;8.00;66.50;;;;;;5052502;28;20049;-69
2021/01/01 02:18:05;;;;;;;93.40;66.82;;;8.00;66.30;;;;;;5052872;28;20068;-65
2021/01/01 02:20:31;;;;;;;101.18;69.38;;;8.10;66.50;;;;;;5052342;28;20032;-67
2021/01/01 02:22:56;;;;;;;103.88;72.00;;;8.20;67.20;;;;;;5052349;28;20033;-67
2021/01/01 02:25:22;;;;;;;98.38;69.45;;;8.20;66.40;;;;;;5052599;28;20063;-66
2021/01/01 02:27:48;;;;;;;98.85;66.25;;;8.30;66.20;;;;;;5052707;28;20040;-72
2021/01/01 02:30:15;;;;;;;91.38;63.58;;;8.50;66.00;;;;;;5052540;28;20427;-69
2021/01/01 02:32:40;;;;;;;93.05;64.13;;;8.50;65.90;;;;;;5052521;28;20029;-67
2021/01/01 02:35:07;;;;;;;87.80;60.13;;;8.60;65.70;;;;;;5052273;28;20350;-69
2021/01/01 02:37:33;;;;;;;89.60;59.92;;;8.70;65.50;;;;;;5052302;28;20033;-67
2021/01/01 02:39:59;;;;;;;84.22;58.03;;;8.80;65.40;;;;;;5050817;28;20035;-65
2021/01/01 02:42:24;;;;;;;81.75;56.08;;;8.80;65.40;;;;;;5052342;28;20037;-71
2021/01/01 02:44:50;;;;;;;81.22;55.50;;;8.80;65.30;;;;;;5052221;28;20377;-71
2021/01/01 02:47:16;;;;;;;74.70;52.47;;;8.90;65.20;;;;;;5052085;28;20029;-67
2021/01/01 02:49:43;;;;;;;72.43;50.92;;;8.80;65.00;;;;;;5051953;28;20359;-66
2021/01/01 02:52:09;;;;;;;76.03;50.50;;;8.80;65.50;;;;;;5052196;28;20108;-65
2021/01/01 02:54:34;;;;;;;77.53;49.42;;;8.70;65.30;;;;;;5052187;28;20111;-70
2021/01/01 02:57:00;;;;;;;70.78;49.35;;;8.60;65.60;;;;;;5052266;28;20071;-67
2021/01/01 02:59:26;;;;;;;69.25;47.33;;;8.50;65.80;;;;;;5051914;28;20044;-69
2021/01/01 03:01:52;;;;;;;70.78;48.25;;;8.50;65.90;;;;;;5052011;28;20063;-68
2021/01/01 03:04:18;;;;;;;71.50;50.70;;;8.50;65.70;;;;;;5053912;28;20128;-68
2021/01/01 03:06:43;;;;;;;86.30;53.15;;;8.60;66.10;;;;;;5055698;28;20104;-68
2021/01/01 03:09:09;;;;;;;79.82;53.35;;;8.70;65.80;;;;;;5055363;28;20021;-71
2021/01/01 03:11:35;;;;;;;73.60;52.13;;;8.60;65.70;;;;;;5055205;28;20041;-71
2021/01/01 03:14:00;;;;;;;74.05;52.90;;;8.60;66.00;;;;;;5055587;28;20021;-70
2021/01/01 03:16:26;;;;;;;78.18;52.03;;;8.70;65.90;;;;;;5055463;28;20082;-67
2021/01/01 03:18:52;;;;;;;74.75;52.10;;;8.60;65.60;;;;;;5055145;28;20044;-66
2021/01/01 03:21:18;;;;;;;78.72;53.25;;;8.70;66.30;;;;;;5055288;28;20304;-66
2021/01/01 03:23:44;;;;;;;79.28;53.92;;;8.70;65.70;;;;;;5055274;28;20027;-65
2021/01/01 03:26:09;;;;;;;78.53;54.10;;;8.60;65.60;;;;;;5055215;28;20100;-68
2021/01/01 03:28:35;;;;;;;73.45;53.15;;;8.60;66.00;;;;;;5055235;28;20029;-66
2021/01/01 03:31:01;;;;;;;79.32;53.92;;;8.50;66.30;;;;;;5055015;28;20021;-67
2021/01/01 03:33:27;;;;;;;75.68;52.08;;;8.60;66.30;;;;;;5055125;28;20025;-66
2021/01/01 03:35:53;;;;;;;80.68;51.60;;;8.50;66.30;;;;;;5054948;28;20397;-67
2021/01/01 03:38:19;;;;;;;67.63;49.10;;;8.60;66.50;;;;;;5054835;28;20029;-67
2021/01/01 03:40:46;;;;;;;67.22;46.63;;;8.50;66.20;;;;;;5054694;28;20474;-65
2021/01/01 03:43:12;;;;;;;65.90;44.17;;;8.60;66.20;;;;;;5054699;28;20145;-66
2021/01/01 03:45:38;;;;;;;63.78;44.72;;;8.60;66.30;;;;;;5054734;28;20070;-67
2021/01/01 03:48:04;;;;;;;59.13;41.75;;;8.60;66.10;;;;;;5054612;28;20033;-65
2021/01/01 03:50:30;;;;;;;53.97;39.80;;;8.70;66.40;;;;;;5054566;28;20047;-65
2021/01/01 03:52:55;;;;;;;62.22;39.33;;;8.70;66.10;;;;;;5053495;28;20017;-66
2021/01/01 03:55:21;;;;;;;53.17;37.58;;;8.70;66.00;;;;;;5054787;28;20382;-65
2021/01/01 03:57:47;;;;;;;54.75;38.03;;;8.80;66.20;;;;;;5055005;28;20470;-66
2021/01/01 04:00:13;;;;;;;51.17;36.03;;;8.80;65.90;;;;;;5054430;28;20017;-66
2021/01/01 04:02:39;;;;;;;58.88;40.70;;;8.80;66.10;;;;;;5054695;28;20055;-66
2021/01/01 04:05:05;;;;;;;88.88;62.60;;;8.90;66.10;;;;;;5054574;28;20025;-67
2021/01/01 04:07:30;;;;;;;113.97;78.88;;;8.90;66.40;;;;;;5053318;28;20025;-66
2021/01/01 04:09:56;;;;;;;159.00;111.03;;;8.90;66.00;;;;;;5054389;28;20055;-66
2021/01/01 04:12:22;;;;;;;160.95;114.57;;;8.80;66.00;;;;;;5054385;28;20033;-66
2021/01/01 04:14:49;;;;;;;114.70;82.00;;;8.70;66.30;;;;;;5054007;28;20041;-65
2021/01/01 04:17:15;;;;;;;110.63;76.95;;;8.70;66.30;;;;;;5054114;28;20017;-65
2021/01/01 04:19:40;;;;;;;102.68;72.35;;;8.70;66.20;;;;;;5054533;28;20367;-65
2021/01/01 04:22:06;;;;;;;98.30;66.47;;;8.80;66.00;;;;;;5054239;28;20025;-65
2021/01/01 04:24:32;;;;;;;72.90;52.85;;;8.70;66.30;;;;;;5054211;28;20074;-66
2021/01/01 04:26:57;;;;;;;63.03;42.85;;;8.80;66.30;;;;;;5054051;28;20477;-66
2021/01/01 04:29:23;;;;;;;53.53;37.75;;;8.80;66.40;;;;;;5054011;28;20053;-66
2021/01/01 04:31:49;;;;;;;53.80;37.45;;;8.90;66.40;;;;;;5053912;28;20025;-66
2021/01/01 04:34:14;;;;;;;57.67;38.92;;;8.90;66.00;;;;;;5054019;28;20517;-66
2021/01/01 04:36:40;;;;;;;53.40;37.92;;;8.90;66.20;;;;;;5052580;28;20028;-65
2021/01/01 04:39:07;;;;;;;45.47;33.22;;;9.00;66.20;;;;;;5053753;28;20036;-66
2021/01/01 04:41:39;;;;;;;48.30;33.25;;;8.90;66.00;;;;;;5053945;28;20099;-65
2021/01/01 04:44:06;;;;;;;48.75;34.40;;;8.80;66.10;;;;;;5053815;28;20133;-66
2021/01/01 04:46:32;;;;;;;48.22;34.08;;;8.80;66.30;;;;;;5053594;28;20100;-66
2021/01/01 04:49:01;;;;;;;47.15;33.13;;;8.80;66.40;;;;;;5053507;28;20100;-66
2021/01/01 04:51:27;;;;;;;40.28;28.85;;;8.80;66.60;;;;;;5053652;28;20363;-65
2021/01/01 04:53:56;;;;;;;38.97;27.67;;;8.80;66.50;;;;;;5052289;28;20366;-65
2021/01/01 04:56:22;;;;;;;33.92;23.85;;;8.80;66.40;;;;;;5053577;28;20085;-66
2021/01/01 04:58:48;;;;;;;33.80;23.67;;;8.80;66.30;;;;;;5053446;28;20044;-66
2021/01/01 05:01:14;;;;;;;33.58;21.83;;;8.90;66.50;;;;;;5053228;28;20027;-65
2021/01/01 05:03:39;;;;;;;30.40;21.85;;;8.90;66.40;;;;;;5053510;28;20152;-66
2021/01/01 05:06:05;;;;;;;31.00;20.42;;;9.00;66.40;;;;;;5053544;28;20013;-65
2021/01/01 05:08:32;;;;;;;29.67;19.50;;;9.00;66.30;;;;;;5053225;28;20021;-65
2021/01/01 05:11:05;;;;;;;28.73;19.67;;;9.00;66.30;;;;;;5052770;28;20505;-66
2021/01/01 05:13:31;;;;;;;25.70;18.23;;;9.00;66.30;;;;;;5053092;28;20056;-65
2021/01/01 05:15:57;;;;;;;26.55;18.02;;;9.00;66.60;;;;;;5053257;28;20060;-65
2021/01/01 05:18:24;;;;;;;24.50;17.10;;;9.10;66.50;;;;;;5053190;28;20098;-65
2021/01/01 05:20:54;;;;;;;25.40;15.73;;;9.10;66.50;;;;;;5052820;28;20055;-65
2021/01/01 05:23:28;;;;;;;24.85;16.58;;;9.20;66.50;;;;;;5052883;28;20331;-66
2021/01/01 05:26:11;;;;;;;22.38;15.52;;;9.20;66.40;;;;;;5052987;28;20059;-66
2021/01/01 05:28:51;;;;;;;25.33;16.08;;;9.30;66.30;;;;;;5053348;28;20029;-66
2021/01/01 05:31:20;;;;;;;22.75;13.50;;;9.30;66.40;;;;;;5053131;28;20029;-66
2021/01/01 05:34:06;;;;;;;17.58;11.25;;;9.30;66.60;;;;;;5053188;28;20021;-66
2021/01/01 05:36:38;;;;;;;14.57;8.25;;;9.30;67.70;;;;;;5052752;28;20436;-66
2021/01/01 05:39:06;;;;;;;14.80;7.97;;;9.30;67.60;;;;;;5052819;28;20447;-67
2021/01/01 05:41:34;;;;;;;12.52;6.97;;;9.30;68.50;;;;;;5052729;28;20025;-66
2021/01/01 05:44:21;;;;;;;10.13;5.57;;;9.20;68.60;;;;;;5052767;28;20029;-66
2021/01/01 05:46:52;;;;;;;8.50;5.43;;;9.30;69.70;;;;;;5052926;28;20108;-65
2021/01/01 05:49:19;;;;;;;9.85;4.43;;;9.20;69.40;;;;;;5052565;28;20090;-65
2021/01/01 05:51:45;;;;;;;7.85;4.28;;;9.20;69.70;;;;;;5052791;28;20047;-66
2021/01/01 05:54:11;;;;;;;8.23;4.60;;;9.10;70.00;;;;;;5052825;28;20029;-66
2021/01/01 05:56:39;;;;;;;10.20;4.03;;;9.10;70.50;;;;;;5052755;28;20036;-66
2021/01/01 05:59:09;;;;;;;7.68;3.90;;;9.10;70.40;;;;;;5052484;28;20167;-67
2021/01/01 06:01:38;;;;;;;7.95;4.28;;;9.10;71.20;;;;;;5052290;28;20055;-67
2021/01/01 06:04:05;;;;;;;7.53;3.60;;;9.00;70.70;;;;;;5052553;28;20046;-67
2021/01/01 06:06:34;;;;;;;7.40;4.38;;;9.00;70.70;;;;;;5052536;28;20046;-67
2021/01/01 06:09:04;;;;;;;6.07;3.67;;;9.00;70.80;;;;;;5052511;28;20027;-66
2021/01/01 06:11:34;;;;;;;9.07;3.45;;;9.00;70.80;;;;;;5052641;28;20099;-66
2021/01/01 06:14:05;;;;;;;8.00;3.58;;;9.00;70.50;;;;;;5052605;28;20031;-66
2021/01/01 06:16:59;;;;;;;7.75;3.60;;;9.00;70.80;;;;;;5052756;28;20059;-66
2021/01/01 06:19:39;;;;;;;8.18;3.90;;;8.90;70.30;;;;;;5052436;28;20047;-66
2021/01/01 06:22:05;;;;;;;9.65;3.83;;;9.00;70.40;;;;;;5052665;28;20402;-68
2021/01/01 06:24:42;;;;;;;9.48;3.92;;;8.90;70.00;;;;;;5052489;28;20025;-67
2021/01/01 06:27:08;;;;;;;7.25;3.50;;;8.90;70.10;;;;;;5052995;28;20087;-66
2021/01/01 06:29:35;;;;;;;5.88;3.38;;;8.90;70.00;;;;;;5052412;28;20036;-67
2021/01/01 06:32:04;;;;;;;9.98;4.10;;;8.90;70.00;;;;;;5052630;28;20036;-65
2021/01/01 06:34:30;;;;;;;8.55;4.20;;;8.90;70.00;;;;;;5052734;28;20029;-66
2021/01/01 06:36:57;;;;;;;8.18;4.10;;;8.90;69.90;;;;;;5052351;28;20048;-66
2021/01/01 06:39:42;;;;;;;7.35;3.83;;;9.00;69.90;;;;;;5054242;28;20037;-66
2021/01/01 06:42:10;;;;;;;7.22;3.97;;;9.00;70.00;;;;;;5056462;28;20104;-66
2021/01/01 06:44:44;;;;;;;8.88;4.00;;;9.00;69.60;;;;;;5056350;28;20492;-65
2021/01/01 06:47:31;;;;;;;11.27;4.25;;;9.00;70.00;;;;;;5056246;28;20024;-67
2021/01/01 06:49:56;;;;;;;10.75;4.18;;;8.90;69.90;;;;;;5055872;28;20036;-65
2021/01/01 06:52:23;;;;;;;10.93;3.60;;;8.90;69.90;;;;;;5056217;28;20028;-66
2021/01/01 06:55:01;;;;;;;9.60;4.30;;;8.80;69.90;;;;;;5055965;28;20370;-66
2021/01/01 06:57:29;;;;;;;7.60;3.72;;;8.80;70.00;;;;;;5055829;28;20509;-66
2021/01/01 06:59:59;;;;;;;10.30;4.05;;;8.90;70.10;;;;;;5055813;28;20033;-65
2021/01/01 07:02:29;;;;;;;6.90;3.60;;;8.90;70.20;;;;;;5055713;28;20094;-66
2021/01/01 07:04:56;;;;;;;8.15;3.10;;;8.90;69.90;;;;;;5055789;28;20040;-66
2021/01/01 07:07:44;;;;;;;6.88;3.33;;;8.90;70.00;;;;;;5055664;28;20465;-66
2021/01/01 07:10:15;;;;;;;6.70;2.85;;;8.90;69.90;;;;;;5055437;28;20059;-66
2021/01/01 07:12:41;;;;;;;7.47;3.20;;;8.90;70.10;;;;;;5055695;28;20058;-65
2021/01/01 07:15:32;;;;;;;6.60;3.75;;;9.00;70.00;;;;;;5055637;28;20021;-67
2021/01/01 07:17:58;;;;;;;9.57;3.20;;;9.00;70.00;;;;;;5055776;28;20182;-66
2021/01/01 07:20:23;;;;;;;10.70;3.80;;;9.00;69.90;;;;;;5054001;28;20492;-66
2021/01/01 07:22:56;;;;;;;6.38;3.35;;;9.00;69.70;;;;;;5055478;28;20025;-66
2021/01/01 07:25:51;;;;;;;7.85;3.70;;;9.00;69.30;;;;;;5054205;28;20028;-66
2021/01/01 07:28:17;;;;;;;7.40;4.10;;;9.00;69.20;;;;;;5050566;28;20041;-66
2021/01/01 07:30:44;;;;;;;10.10;4.65;;;9.00;69.40;;;;;;5055215;28;20063;-66
2021/01/01 07:33:10;;;;;;;7.35;4.47;;;9.00;69.30;;;;;;5055210;28;20378;-66
2021/01/01 07:35:36;;;;;;;9.65;4.93;;;9.10;69.40;;;;;;5055310;28;20458;-67
2021/01/01 07:38:04;;;;;;;8.23;4.57;;;9.10;69.00;;;;;;5054853;28;20112;-67
2021/01/01 07:40:29;;;;;;;9.23;4.78;;;9.20;69.10;;;;;;5055069;28;20025;-68
2021/01/01 07:42:55;;;;;;;8.20;4.90;;;9.20;68.90;;;;;;5055151;28;20044;-67
2021/01/01 07:45:21;;;;;;;8.30;4.30;;;9.30;69.00;;;;;;5055387;28;20025;-66
2021/01/01 07:47:47;;;;;;;6.78;4.47;;;9.30;68.90;;;;;;5054721;28;20032;-71
2021/01/01 07:50:17;;;;;;;6.30;4.07;;;9.30;68.50;;;;;;5053607;28;20025;-72
2021/01/01 07:52:44;;;;;;;9.05;4.18;;;9.40;68.50;;;;;;5055158;28;20451;-67
2021/01/01 07:55:10;;;;;;;7.05;3.35;;;9.40;68.60;;;;;;5054812;28;20059;-66
2021/01/01 07:57:38;;;;;;;7.03;3.67;;;9.40;68.70;;;;;;5055123;28;20040;-67
2021/01/01 08:00:06;;;;;;;6.75;3.42;;;9.50;68.40;;;;;;5054813;28;20021;-71
2021/01/01 08:02:32;;;;;;;7.28;3.88;;;9.60;68.50;;;;;;5054702;28;20505;-70
2021/01/01 08:05:01;;;;;;;7.00;3.30;;;9.50;68.10;;;;;;5054537;28;20466;-67
2021/01/01 08:07:26;;;;;;;9.02;3.75;;;9.60;68.10;;;;;;5054612;28;20021;-68
2021/01/01 08:09:52;;;;;;;7.00;3.70;;;9.60;68.00;;;;;;5052892;28;20032;-67
2021/01/01 08:12:18;;;;;;;6.10;3.35;;;9.70;67.80;;;;;;5054419;28;20040;-66
2021/01/01 08:14:54;;;;;;;5.45;3.17;;;9.70;67.90;;;;;;5054014;28;20110;-65
2021/01/01 08:17:29;;;;;;;10.23;3.95;;;9.70;67.50;;;;;;5054327;28;20052;-68
2021/01/01 08:19:59;;;;;;;6.57;3.33;;;9.80;67.30;;;;;;5054266;28;20116;-69
2021/01/01 08:22:35;;;;;;;11.25;3.90;;;9.90;67.30;;;;;;5054227;28;20033;-66
2021/01/01 08:25:02;;;;;;;9.35;3.65;;;9.90;67.10;;;;;;5054368;28;20023;-66
2021/01/01 08:27:28;;;;;;;9.60;4.30;;;10.00;66.00;;;;;;5054163;28;20017;-67
2021/01/01 08:29:55;;;;;;;7.72;3.80;;;10.00;65.70;;;;;;5054035;28;20021;-67
2021/01/01 08:32:22;;;;;;;8.07;4.07;;;10.10;65.70;;;;;;5052754;28;20359;-67
2021/01/01 08:34:52;;;;;;;9.90;4.28;;;10.10;65.60;;;;;;5052812;28;20059;-69
2021/01/01 08:37:22;;;;;;;11.45;4.60;;;10.10;65.80;;;;;;5054169;28;20124;-68
2021/01/01 08:40:00;;;;;;;7.57;4.30;;;10.20;66.00;;;;;;5053889;28;20040;-66
2021/01/01 08:42:36;;;;;;;7.45;4.20;;;10.30;65.90;;;;;;5054231;28;20049;-67
2021/01/01 08:45:04;;;;;;;9.65;4.63;;;10.30;65.90;;;;;;5054306;28;20553;-66
2021/01/01 08:47:44;;;;;;;10.73;5.38;;;10.40;65.70;;;;;;5054022;28;20021;-67
2021/01/01 08:50:24;;;;;;;9.70;5.10;;;10.40;65.60;;;;;;5053658;28;20104;-67
2021/01/01 08:53:02;;;;;;;8.70;4.97;;;10.40;65.80;;;;;;5053909;28;20043;-67
2021/01/01 08:55:28;;;;;;;9.50;5.25;;;10.40;65.70;;;;;;5053699;28;20576;-68
2021/01/01 08:58:14;;;;;;;11.07;5.30;;;10.40;65.70;;;;;;5053707;28;20029;-68
2021/01/01 09:00:42;;;;;;;9.32;4.82;;;10.40;66.00;;;;;;5053543;28;20063;-66
2021/01/01 09:03:08;;;;;;;8.80;4.88;;;10.40;66.00;;;;;;5053175;28;20031;-66
2021/01/01 09:05:35;;;;;;;7.80;4.88;;;10.40;65.80;;;;;;5053654;28;20436;-66
2021/01/01 09:08:14;;;;;;;7.55;4.65;;;10.40;65.90;;;;;;5053959;28;20100;-65
2021/01/01 09:10:45;;;;;;;7.95;4.40;;;10.40;66.00;;;;;;5053340;28;20060;-66
2021/01/01 09:13:30;;;;;;;8.80;5.00;;;10.50;66.10;;;;;;5053513;28;20021;-67
2021/01/01 09:16:04;;;;;;;9.38;4.60;;;10.40;66.30;;;;;;5053674;28;20478;-67
2021/01/01 09:18:31;;;;;;;8.77;4.45;;;10.40;66.20;;;;;;5053266;28;20033;-67
2021/01/01 09:21:13;;;;;;;8.00;4.07;;;10.40;66.10;;;;;;5053077;28;20024;-67
2021/01/01 09:23:41;;;;;;;8.30;4.80;;;10.40;66.10;;;;;;5053101;28;20021;-66
2021/01/01 09:26:07;;;;;;;8.30;4.35;;;10.30;65.80;;;;;;5053218;28;20108;-66
2021/01/01 09:28:34;;;;;;;9.63;4.22;;;10.30;66.00;;;;;;5053123;28;20100;-66
2021/01/01 09:30:59;;;;;;;7.10;4.10;;;10.30;65.90;;;;;;5052942;28;20474;-65
2021/01/01 09:33:25;;;;;;;10.13;4.45;;;10.30;66.00;;;;;;5053075;28;20088;-67
2021/01/01 09:35:51;;;;;;;11.07;5.15;;;10.30;66.20;;;;;;5053049;28;20025;-67
2021/01/01 09:38:17;;;;;;;12.98;6.20;;;10.40;67.00;;;;;;5052773;28;20037;-68
2021/01/01 09:40:42;;;;;;;12.07;6.55;;;10.50;67.40;;;;;;5053159;28;20089;-68
2021/01/01 09:43:08;;;;;;;11.40;5.15;;;10.60;67.90;;;;;;5053084;28;20500;-67
2021/01/01 09:45:35;;;;;;;10.95;5.70;;;10.60;67.90;;;;;;5053234;28;20109;-67
2021/01/01 09:48:02;;;;;;;15.27;6.00;;;10.70;68.70;;;;;;5053063;28;20036;-67
2021/01/01 09:50:27;;;;;;;11.98;5.57;;;10.70;68.90;;;;;;5052696;28;20029;-67
2021/01/01 09:52:53;;;;;;;12.18;6.32;;;10.80;69.30;;;;;;5051339;28;20022;-66
2021/01/01 09:55:19;;;;;;;12.30;5.88;;;10.80;69.40;;;;;;5053045;28;20039;-67
2021/01/01 09:57:46;;;;;;;11.82;6.25;;;10.80;69.70;;;;;;5052660;28;20029;-66
2021/01/01 10:00:16;;;;;;;10.50;5.63;;;10.80;69.90;;;;;;5052774;28;20029;-66
2021/01/01 10:02:43;;;;;;;11.57;5.38;;;10.70;70.30;;;;;;5052501;28;20018;-67
2021/01/01 10:05:10;;;;;;;13.32;6.53;;;10.70;70.90;;;;;;5051353;28;20118;-68
2021/01/01 10:07:36;;;;;;;13.15;6.30;;;10.70;71.40;;;;;;5052861;28;20036;-70
2021/01/01 10:10:05;;;;;;;10.70;6.57;;;10.80;71.40;;;;;;5052512;28;20371;-67
2021/01/01 10:12:31;;;;;;;9.73;5.40;;;10.80;71.30;;;;;;5052830;28;20037;-69
2021/01/01 10:14:58;;;;;;;9.40;5.88;;;10.80;71.50;;;;;;5055679;28;20017;-68
2021/01/01 10:17:28;;;;;;;11.63;6.28;;;10.80;71.40;;;;;;5056531;28;20078;-68
2021/01/01 10:19:55;;;;;;;13.13;7.07;;;10.90;71.30;;;;;;5056452;28;20127;-68
2021/01/01 10:22:20;;;;;;;14.07;7.53;;;10.90;71.20;;;;;;5056487;28;20055;-67
2021/01/01 10:24:47;;;;;;;12.18;6.55;;;11.00;71.30;;;;;;5056429;28;20025;-68
2021/01/01 10:27:14;;;;;;;12.93;6.47;;;11.00;71.20;;;;;;5056194;28;20017;-68
2021/01/01 10:29:40;;;;;;;10.48;5.90;;;11.10;71.20;;;;;;5056542;28;20469;-73
2021/01/01 10:32:10;;;;;;;9.18;5.45;;;11.10;71.00;;;;;;5056638;28;20022;-71
2021/01/01 10:34:37;;;;;;;10.40;5.43;;;11.20;70.80;;;;;;5056360;28;20036;-68
2021/01/01 10:37:03;;;;;;;9.48;5.20;;;11.20;70.70;;;;;;5056472;28;20016;-70
2021/01/01 10:39:29;;;;;;;10.05;5.28;;;11.20;70.80;;;;;;5056195;28;20040;-69
2021/01/01 10:41:54;;;;;;;9.35;4.70;;;11.30;70.70;;;;;;5055297;28;20032;-72
2021/01/01 10:44:21;;;;;;;9.15;4.75;;;11.20;70.60;;;;;;5055218;28;20033;-68
2021/01/01 10:46:52;;;;;;;7.55;4.88;;;11.30;70.50;;;;;;5056332;28;20033;-67
2021/01/01 10:49:24;;;;;;;9.13;4.97;;;11.30;70.30;;;;;;5056228;28;20033;-70
2021/01/01 10:51:51;;;;;;;7.65;4.22;;;11.40;70.30;;;;;;5055056;28;20022;-68
2021/01/01 10:54:16;;;;;;;8.55;4.25;;;11.40;69.80;;;;;;5056097;28;20405;-68
2021/01/01 10:56:46;;;;;;;8.02;4.20;;;11.40;69.80;;;;;;5056112;28;20025;-68
2021/01/01 10:59:12;;;;;;;8.63;4.30;;;11.40;69.60;;;;;;5056214;28;20021;-69
2021/01/01 11:01:38;;;;;;;7.10;3.85;;;11.50;69.30;;;;;;5055728;28;20032;-69
2021/01/01 11:04:04;;;;;;;6.65;3.15;;;11.60;69.20;;;;;;5055726;28;20366;-70
2021/01/01 11:06:33;;;;;;;7.88;3.17;;;11.60;68.90;;;;;;5056253;28;20021;-68
2021/01/01 11:08:59;;;;;;;6.72;3.30;;;11.60;68.40;;;;;;5056656;28;20025;-69
2021/01/01 11:11:25;;;;;;;7.32;2.88;;;11.70;68.50;;;;;;5056883;28;20524;-72
2021/01/01 11:13:56;;;;;;;7.97;3.70;;;11.70;68.40;;;;;;5055129;28;20032;-70
2021/01/01 12:25:24;;;;;;;7.03;3.60;;;12.30;69.20;;;;;;5054068;28;20423;-67
2021/01/01 12:27:51;;;;;;;8.05;3.90;;;12.40;68.50;;;;;;5054137;28;20504;-68
2021/01/01 12:30:17;;;;;;;9.00;4.75;;;12.50;68.50;;;;;;5054562;28;20382;-68
2021/01/01 12:32:44;;;;;;;6.93;3.65;;;12.60;68.40;;;;;;5054227;28;20086;-67
2021/01/01 12:35:11;;;;;;;8.48;4.57;;;12.70;68.30;;;;;;5054081;28;20017;-71
2021/01/01 12:37:38;;;;;;;9.68;5.90;;;12.70;68.50;;;;;;5053395;28;20397;-67
2021/01/01 12:40:06;;;;;;;10.13;6.60;;;12.70;68.40;;;;;;5053968;28;20108;-67
2021/01/01 12:42:32;;;;;;;11.93;7.15;;;12.50;68.50;;;;;;5054168;28;20052;-70
2021/01/01 12:44:57;;;;;;;10.57;6.95;;;12.30;68.50;;;;;;5052673;28;20076;-69
2021/01/01 12:47:24;;;;;;;12.57;8.77;;;12.30;68.80;;;;;;5053878;28;20021;-68
2021/01/01 12:49:50;;;;;;;12.70;7.65;;;12.20;68.90;;;;;;5053820;28;20068;-72
2021/01/01 12:52:16;;;;;;;10.90;7.40;;;12.10;69.00;;;;;;5053879;28;20470;-68
2021/01/01 12:54:41;;;;;;;10.55;6.95;;;12.20;69.30;;;;;;5053763;28;20116;-69
2021/01/01 12:57:07;;;;;;;14.00;8.23;;;12.20;69.10;;;;;;5054110;28;20154;-70
2021/01/01 12:59:33;;;;;;;11.75;7.60;;;12.30;68.80;;;;;;5053753;28;20061;-71
2021/01/01 13:01:59;;;;;;;10.80;7.15;;;12.40;68.50;;;;;;5053903;28;20036;-75
2021/01/01 13:04:45;;;;;;;9.35;6.70;;;12.60;68.30;;;;;;5054612;28;20517;-70
2021/01/01 13:07:10;;;;;;;10.45;6.70;;;12.70;68.10;;;;;;5052924;28;20056;-69
2021/01/01 13:09:36;;;;;;;8.20;5.90;;;12.80;67.60;;;;;;5053580;28;20110;-71
2021/01/01 13:12:02;;;;;;;10.32;6.13;;;12.90;67.50;;;;;;5052532;28;20053;-71
2021/01/01 13:14:28;;;;;;;10.23;5.90;;;13.00;67.20;;;;;;5053004;28;20028;-69
2021/01/01 13:16:55;;;;;;;8.02;4.90;;;13.00;67.00;;;;;;5053613;28;20447;-70
2021/01/01 13:19:21;;;;;;;7.47;4.97;;;13.10;66.60;;;;;;5053492;28;20073;-70
2021/01/01 13:21:47;;;;;;;7.10;4.75;;;13.10;66.50;;;;;;5053744;28;20048;-67
2021/01/01 13:24:12;;;;;;;8.27;5.00;;;13.00;66.40;;;;;;5053657;28;20086;-67
2021/01/01 13:26:38;;;;;;;10.10;5.10;;;12.90;66.40;;;;;;5053945;28;20052;-67
2021/01/01 13:29:04;;;;;;;8.73;5.13;;;13.00;66.60;;;;;;5054456;28;20021;-70
2021/01/01 13:31:38;;;;;;;8.23;5.85;;;12.90;66.30;;;;;;5052472;28;20401;-69
2021/01/01 13:34:07;;;;;;;8.40;5.20;;;12.90;66.50;;;;;;5053966;28;20029;-67
2021/01/01 13:36:33;;;;;;;9.65;5.25;;;13.00;66.40;;;;;;5052604;28;20021;-69
2021/01/01 13:38:59;;;;;;;9.73;5.90;;;13.10;66.60;;;;;;5053125;28;20083;-71
2021/01/01 13:41:25;;;;;;;10.30;6.18;;;13.00;66.60;;;;;;5052909;28;20427;-67
2021/01/01 13:43:53;;;;;;;10.50;7.22;;;12.90;66.70;;;;;;5053102;28;20029;-68
2021/01/01 13:46:24;;;;;;;10.32;5.95;;;12.80;67.20;;;;;;5053074;28;20052;-67
2021/01/01 13:48:50;;;;;;;8.98;5.13;;;12.70;67.30;;;;;;5051990;28;20518;-69
2021/01/01 13:51:16;;;;;;;9.73;5.03;;;12.70;68.30;;;;;;5052939;28;20032;-71
2021/01/01 13:53:42;;;;;;;6.72;3.60;;;12.70;67.80;;;;;;5052968;28;20021;-67
2021/01/01 13:56:08;;;;;;;7.40;3.75;;;12.60;67.20;;;;;;5052990;28;20430;-68